Weather at Lyon Saint-Exupéry Airport

Public forecast

Using degrees Celsius for public forecast. Weather courtesy of forecast.io.

Current aviation weather report (METAR) for Lyon Saint-Exupéry Airport

Retrieved 2020/10/29 01:30 UTC (0 seconds ago):

LFLL 290130Z 16005KT CAVOK 14/08 Q1022 NOSIG

Aviation forecast (TAF) for Lyon Saint-Exupéry Airport

Retrieved 2020-10-29 00:21 UTC (45 minutes ago):

TAF LFLL 282300Z 2900/3006 18006KT CAVOK TEMPO 2901/2914 -RA OVC040 BECMG 2910/2912 VRB03KT TEMPO 3003/3006 4000 BR MIFG PROB40 TEMPO 3003/3006 0400 BCFG